LHM weather

Lincoln Regional Karl Harder Field
Lincoln, California, United States

Public forecast

Using degrees Fahrenheit for public forecast. Weather courtesy of forecast.io.

Current aviation weather report (METAR) for Lincoln Regional Karl Harder Field

Retrieved 2020/02/23 17:35 UTC (7 minutes ago):

KLHM 231735Z AUTO 13004KT 10SM SCT019 12/07 A3032 RMK AO1

Closest aviation forecast (TAF) to Lincoln Regional Karl Harder Field

Forecast is more than 12 hours old.

Closest forecast is Beale Air Force Base, 14.2 nm (26.3 km) NNW. Retrieved 2020-02-22 03:03 UTC (2 days ago):

TAF TAF KBAB 220301Z 2203/2309 VRB06KT 9999 SCT080 BKN250 QNH2989INS BECMG 2209/2210 VRB06KT 9999 BKN080 BKN250 QNH2987INS BECMG 2215/2216 16012KT 9999 SCT080 BKN250 QNH2995INS BECMG 2300/2301 VRB06KT 9999 SCT250 QNH2998INS TX18/2222Z TN05/2215Z LAST NO AMDS AFT 2207 NEXT 2411